Terminal Aerodrome Forecast
Issued by NWS Sterling, VA

Current Version | Previous Version | Graphics & Text | Print | Product List | Glossary On
Versions: 1 2 3 4 5 6 7 8 9 10 11 12 13 14 15 16 17 18 19 20 21 22 23 24 25 26 27
000
FTUS41 KLWX 280543
TAFDCA
TAF
KDCA 280543Z 2806/2906 15004KT P6SM FEW009 SCT050
     FM280900 15004KT 5SM BR FEW009
     FM281100 13004KT P6SM SCT050
     FM281500 15007KT P6SM BKN050=

USA.gov is the U.S. government's official web portal to all federal, state and local government web resources and services.